sensor_id;sensor_type;location;lat;lon;timestamp;P1;durP1;ratioP1;P2;durP2;ratioP2
12591;SDS011;6361;52.120;5.108;2022-11-23T00:01:33;27.35;;;16.17;;
12591;SDS011;6361;52.120;5.108;2022-11-23T00:04:05;31.13;;;16.02;;
12591;SDS011;6361;52.120;5.108;2022-11-23T00:06:32;35.58;;;16.48;;
12591;SDS011;6361;52.120;5.108;2022-11-23T00:08:58;32.05;;;16.30;;
12591;SDS011;6361;52.120;5.108;2022-11-23T00:11:24;29.60;;;15.68;;
12591;SDS011;6361;52.120;5.108;2022-11-23T00:13:51;32.70;;;15.80;;
12591;SDS011;6361;52.120;5.108;2022-11-23T00:16:18;30.17;;;16.33;;
12591;SDS011;6361;52.120;5.108;2022-11-23T00:18:45;29.63;;;16.45;;
12591;SDS011;6361;52.120;5.108;2022-11-23T00:21:11;30.80;;;17.67;;
12591;SDS011;6361;52.120;5.108;2022-11-23T00:23:39;33.75;;;17.50;;
12591;SDS011;6361;52.120;5.108;2022-11-23T00:26:04;35.60;;;18.00;;
12591;SDS011;6361;52.120;5.108;2022-11-23T00:28:30;38.50;;;18.77;;
12591;SDS011;6361;52.120;5.108;2022-11-23T00:30:55;33.78;;;18.05;;
12591;SDS011;6361;52.120;5.108;2022-11-23T00:33:21;33.00;;;18.50;;
12591;SDS011;6361;52.120;5.108;2022-11-23T00:35:46;37.72;;;18.42;;
12591;SDS011;6361;52.120;5.108;2022-11-23T00:38:12;33.95;;;19.45;;
12591;SDS011;6361;52.120;5.108;2022-11-23T00:40:37;35.72;;;19.45;;
12591;SDS011;6361;52.120;5.108;2022-11-23T00:43:03;36.55;;;19.17;;
12591;SDS011;6361;52.120;5.108;2022-11-23T00:45:29;34.67;;;18.88;;
12591;SDS011;6361;52.120;5.108;2022-11-23T00:47:54;36.50;;;18.20;;
12591;SDS011;6361;52.120;5.108;2022-11-23T00:50:20;31.70;;;18.70;;
12591;SDS011;6361;52.120;5.108;2022-11-23T00:52:45;38.50;;;20.08;;
12591;SDS011;6361;52.120;5.108;2022-11-23T00:55:10;34.80;;;18.02;;
12591;SDS011;6361;52.120;5.108;2022-11-23T00:57:36;38.63;;;20.15;;
12591;SDS011;6361;52.120;5.108;2022-11-23T01:00:02;34.92;;;19.73;;
12591;SDS011;6361;52.120;5.108;2022-11-23T01:02:28;39.30;;;20.60;;
12591;SDS011;6361;52.120;5.108;2022-11-23T01:04:53;35.90;;;20.30;;
12591;SDS011;6361;52.120;5.108;2022-11-23T01:07:20;38.17;;;21.27;;
12591;SDS011;6361;52.120;5.108;2022-11-23T01:09:45;36.15;;;21.15;;
12591;SDS011;6361;52.120;5.108;2022-11-23T01:12:10;41.78;;;22.08;;
12591;SDS011;6361;52.120;5.108;2022-11-23T01:14:36;41.22;;;22.50;;
12591;SDS011;6361;52.120;5.108;2022-11-23T01:17:01;43.03;;;22.42;;
12591;SDS011;6361;52.120;5.108;2022-11-23T01:19:26;41.63;;;21.00;;
12591;SDS011;6361;52.120;5.108;2022-11-23T01:21:54;41.13;;;21.77;;
12591;SDS011;6361;52.120;5.108;2022-11-23T01:24:20;39.50;;;20.40;;
12591;SDS011;6361;52.120;5.108;2022-11-23T01:26:52;38.47;;;19.85;;
12591;SDS011;6361;52.120;5.108;2022-11-23T01:29:18;36.55;;;19.15;;
12591;SDS011;6361;52.120;5.108;2022-11-23T01:31:44;39.72;;;18.63;;
12591;SDS011;6361;52.120;5.108;2022-11-23T01:34:10;32.88;;;17.58;;
12591;SDS011;6361;52.120;5.108;2022-11-23T01:36:36;34.38;;;16.65;;
12591;SDS011;6361;52.120;5.108;2022-11-23T01:39:02;35.33;;;17.27;;
12591;SDS011;6361;52.120;5.108;2022-11-23T01:41:35;30.40;;;17.52;;
12591;SDS011;6361;52.120;5.108;2022-11-23T01:46:48;32.03;;;16.67;;
12591;SDS011;6361;52.120;5.108;2022-11-23T01:49:13;31.75;;;16.58;;
12591;SDS011;6361;52.120;5.108;2022-11-23T01:51:39;34.47;;;16.42;;
12591;SDS011;6361;52.120;5.108;2022-11-23T01:54:07;35.13;;;15.52;;
12591;SDS011;6361;52.120;5.108;2022-11-23T01:56:36;34.53;;;16.15;;
12591;SDS011;6361;52.120;5.108;2022-11-23T01:59:04;32.80;;;15.20;;
12591;SDS011;6361;52.120;5.108;2022-11-23T02:01:33;32.33;;;15.52;;
12591;SDS011;6361;52.120;5.108;2022-11-23T02:03:59;36.10;;;16.17;;
12591;SDS011;6361;52.120;5.108;2022-11-23T02:06:25;32.55;;;15.68;;
12591;SDS011;6361;52.120;5.108;2022-11-23T02:08:51;29.00;;;15.30;;
12591;SDS011;6361;52.120;5.108;2022-11-23T02:11:17;27.77;;;15.20;;
12591;SDS011;6361;52.120;5.108;2022-11-23T02:13:44;32.60;;;15.85;;
12591;SDS011;6361;52.120;5.108;2022-11-23T02:16:10;30.10;;;15.45;;
12591;SDS011;6361;52.120;5.108;2022-11-23T02:18:35;31.50;;;13.65;;
12591;SDS011;6361;52.120;5.108;2022-11-23T02:21:01;32.50;;;14.48;;
12591;SDS011;6361;52.120;5.108;2022-11-23T02:26:10;29.67;;;14.90;;
12591;SDS011;6361;52.120;5.108;2022-11-23T02:28:43;29.63;;;14.25;;
12591;SDS011;6361;52.120;5.108;2022-11-23T02:31:10;27.63;;;13.45;;
12591;SDS011;6361;52.120;5.108;2022-11-23T02:33:39;29.83;;;13.88;;
12591;SDS011;6361;52.120;5.108;2022-11-23T02:38:55;25.00;;;12.98;;
12591;SDS011;6361;52.120;5.108;2022-11-23T02:41:22;29.13;;;12.68;;
12591;SDS011;6361;52.120;5.108;2022-11-23T02:43:47;28.48;;;12.55;;
12591;SDS011;6361;52.120;5.108;2022-11-23T02:46:16;24.98;;;12.40;;
12591;SDS011;6361;52.120;5.108;2022-11-23T02:48:42;25.77;;;12.48;;
12591;SDS011;6361;52.120;5.108;2022-11-23T02:51:07;27.95;;;12.85;;
12591;SDS011;6361;52.120;5.108;2022-11-23T02:53:32;25.75;;;12.90;;
12591;SDS011;6361;52.120;5.108;2022-11-23T02:55:58;27.92;;;14.10;;
12591;SDS011;6361;52.120;5.108;2022-11-23T02:58:23;33.00;;;14.43;;
12591;SDS011;6361;52.120;5.108;2022-11-23T03:00:48;23.98;;;13.75;;
12591;SDS011;6361;52.120;5.108;2022-11-23T03:03:14;25.70;;;14.77;;
12591;SDS011;6361;52.120;5.108;2022-11-23T03:05:39;25.42;;;14.15;;
12591;SDS011;6361;52.120;5.108;2022-11-23T03:08:04;28.55;;;14.52;;
12591;SDS011;6361;52.120;5.108;2022-11-23T03:10:30;26.25;;;14.32;;
12591;SDS011;6361;52.120;5.108;2022-11-23T03:12:55;29.85;;;14.98;;
12591;SDS011;6361;52.120;5.108;2022-11-23T03:15:21;25.80;;;14.95;;
12591;SDS011;6361;52.120;5.108;2022-11-23T03:17:47;32.05;;;15.40;;
12591;SDS011;6361;52.120;5.108;2022-11-23T03:20:12;28.30;;;15.15;;
12591;SDS011;6361;52.120;5.108;2022-11-23T03:22:38;26.52;;;14.68;;
12591;SDS011;6361;52.120;5.108;2022-11-23T03:25:03;25.10;;;14.18;;
12591;SDS011;6361;52.120;5.108;2022-11-23T03:27:29;25.15;;;14.50;;
12591;SDS011;6361;52.120;5.108;2022-11-23T03:29:57;25.83;;;15.38;;
12591;SDS011;6361;52.120;5.108;2022-11-23T03:32:23;25.48;;;14.93;;
12591;SDS011;6361;52.120;5.108;2022-11-23T03:34:48;30.33;;;15.45;;
12591;SDS011;6361;52.120;5.108;2022-11-23T03:37:13;24.95;;;14.23;;
12591;SDS011;6361;52.120;5.108;2022-11-23T03:39:39;23.90;;;13.75;;
12591;SDS011;6361;52.120;5.108;2022-11-23T03:42:04;21.52;;;13.85;;
12591;SDS011;6361;52.120;5.108;2022-11-23T03:44:29;23.52;;;13.15;;
12591;SDS011;6361;52.120;5.108;2022-11-23T03:46:55;26.60;;;12.32;;
12591;SDS011;6361;52.120;5.108;2022-11-23T03:49:20;23.90;;;12.50;;
12591;SDS011;6361;52.120;5.108;2022-11-23T03:51:45;18.83;;;12.02;;
12591;SDS011;6361;52.120;5.108;2022-11-23T03:54:11;21.10;;;12.75;;
12591;SDS011;6361;52.120;5.108;2022-11-23T03:56:36;23.17;;;12.13;;
12591;SDS011;6361;52.120;5.108;2022-11-23T03:59:01;24.42;;;12.93;;
12591;SDS011;6361;52.120;5.108;2022-11-23T04:01:27;18.90;;;11.93;;
12591;SDS011;6361;52.120;5.108;2022-11-23T04:03:52;24.05;;;12.70;;
12591;SDS011;6361;52.120;5.108;2022-11-23T04:06:18;22.55;;;12.57;;
12591;SDS011;6361;52.120;5.108;2022-11-23T04:08:43;23.02;;;12.90;;
12591;SDS011;6361;52.120;5.108;2022-11-23T04:11:09;23.45;;;13.18;;
12591;SDS011;6361;52.120;5.108;2022-11-23T04:13:35;27.27;;;12.75;;
12591;SDS011;6361;52.120;5.108;2022-11-23T04:16:00;24.52;;;13.15;;
12591;SDS011;6361;52.120;5.108;2022-11-23T04:18:25;25.48;;;12.73;;
12591;SDS011;6361;52.120;5.108;2022-11-23T04:20:51;25.67;;;12.73;;
12591;SDS011;6361;52.120;5.108;2022-11-23T04:23:16;20.45;;;12.75;;
12591;SDS011;6361;52.120;5.108;2022-11-23T04:25:41;21.40;;;12.38;;
12591;SDS011;6361;52.120;5.108;2022-11-23T04:28:07;20.27;;;12.05;;
12591;SDS011;6361;52.120;5.108;2022-11-23T04:30:32;24.75;;;12.30;;
12591;SDS011;6361;52.120;5.108;2022-11-23T04:32:58;18.48;;;12.05;;
12591;SDS011;6361;52.120;5.108;2022-11-23T04:35:23;22.38;;;12.40;;
12591;SDS011;6361;52.120;5.108;2022-11-23T04:37:48;22.38;;;11.95;;
12591;SDS011;6361;52.120;5.108;2022-11-23T04:40:14;18.50;;;11.07;;
12591;SDS011;6361;52.120;5.108;2022-11-23T04:42:39;21.15;;;10.70;;
12591;SDS011;6361;52.120;5.108;2022-11-23T04:45:05;24.05;;;11.30;;
12591;SDS011;6361;52.120;5.108;2022-11-23T04:47:31;20.80;;;10.85;;
12591;SDS011;6361;52.120;5.108;2022-11-23T04:49:56;20.05;;;10.05;;
12591;SDS011;6361;52.120;5.108;2022-11-23T04:52:21;18.35;;;10.02;;
12591;SDS011;6361;52.120;5.108;2022-11-23T04:54:47;19.15;;;9.73;;
12591;SDS011;6361;52.120;5.108;2022-11-23T04:57:12;18.52;;;9.30;;
12591;SDS011;6361;52.120;5.108;2022-11-23T04:59:38;17.52;;;9.30;;
12591;SDS011;6361;52.120;5.108;2022-11-23T05:02:03;17.70;;;9.27;;
12591;SDS011;6361;52.120;5.108;2022-11-23T05:04:28;19.60;;;9.35;;
12591;SDS011;6361;52.120;5.108;2022-11-23T05:06:54;16.75;;;9.27;;
12591;SDS011;6361;52.120;5.108;2022-11-23T05:09:19;16.95;;;9.25;;
12591;SDS011;6361;52.120;5.108;2022-11-23T05:11:44;15.80;;;9.07;;
12591;SDS011;6361;52.120;5.108;2022-11-23T05:14:10;24.02;;;10.00;;
12591;SDS011;6361;52.120;5.108;2022-11-23T05:16:35;19.45;;;9.38;;
12591;SDS011;6361;52.120;5.108;2022-11-23T05:19:00;17.40;;;9.75;;
12591;SDS011;6361;52.120;5.108;2022-11-23T05:21:26;19.92;;;9.52;;
12591;SDS011;6361;52.120;5.108;2022-11-23T05:23:51;17.30;;;9.25;;
12591;SDS011;6361;52.120;5.108;2022-11-23T05:26:17;20.00;;;9.40;;
12591;SDS011;6361;52.120;5.108;2022-11-23T05:28:42;19.40;;;9.13;;
12591;SDS011;6361;52.120;5.108;2022-11-23T05:31:07;17.50;;;8.43;;
12591;SDS011;6361;52.120;5.108;2022-11-23T05:33:33;21.42;;;10.23;;
12591;SDS011;6361;52.120;5.108;2022-11-23T05:35:59;18.60;;;8.98;;
12591;SDS011;6361;52.120;5.108;2022-11-23T05:38:24;22.77;;;9.68;;
12591;SDS011;6361;52.120;5.108;2022-11-23T05:40:50;22.70;;;9.45;;
12591;SDS011;6361;52.120;5.108;2022-11-23T05:43:15;19.15;;;9.40;;
12591;SDS011;6361;52.120;5.108;2022-11-23T05:45:40;25.85;;;9.43;;
12591;SDS011;6361;52.120;5.108;2022-11-23T05:48:06;23.88;;;9.15;;
12591;SDS011;6361;52.120;5.108;2022-11-23T05:50:31;19.27;;;8.80;;
12591;SDS011;6361;52.120;5.108;2022-11-23T05:52:57;23.02;;;9.50;;
12591;SDS011;6361;52.120;5.108;2022-11-23T05:55:23;23.42;;;8.90;;
12591;SDS011;6361;52.120;5.108;2022-11-23T05:57:48;27.98;;;9.10;;
12591;SDS011;6361;52.120;5.108;2022-11-23T06:00:14;20.27;;;8.55;;
12591;SDS011;6361;52.120;5.108;2022-11-23T06:02:40;19.90;;;8.07;;
12591;SDS011;6361;52.120;5.108;2022-11-23T06:05:05;16.67;;;8.27;;
12591;SDS011;6361;52.120;5.108;2022-11-23T06:07:32;21.60;;;8.57;;
12591;SDS011;6361;52.120;5.108;2022-11-23T06:09:57;21.50;;;8.48;;
12591;SDS011;6361;52.120;5.108;2022-11-23T06:12:23;20.98;;;8.25;;
12591;SDS011;6361;52.120;5.108;2022-11-23T06:14:48;17.48;;;7.88;;
12591;SDS011;6361;52.120;5.108;2022-11-23T06:17:13;21.42;;;8.80;;
12591;SDS011;6361;52.120;5.108;2022-11-23T06:19:39;20.25;;;8.63;;
12591;SDS011;6361;52.120;5.108;2022-11-23T06:22:04;22.10;;;9.13;;
12591;SDS011;6361;52.120;5.108;2022-11-23T06:24:30;22.67;;;8.93;;
12591;SDS011;6361;52.120;5.108;2022-11-23T06:26:55;22.30;;;9.13;;
12591;SDS011;6361;52.120;5.108;2022-11-23T06:29:21;22.70;;;9.77;;
12591;SDS011;6361;52.120;5.108;2022-11-23T06:31:46;24.90;;;9.52;;
12591;SDS011;6361;52.120;5.108;2022-11-23T06:34:12;20.83;;;9.15;;
12591;SDS011;6361;52.120;5.108;2022-11-23T06:36:37;22.77;;;9.57;;
12591;SDS011;6361;52.120;5.108;2022-11-23T06:39:03;21.10;;;8.77;;
12591;SDS011;6361;52.120;5.108;2022-11-23T06:41:28;21.63;;;8.77;;
12591;SDS011;6361;52.120;5.108;2022-11-23T06:43:53;20.85;;;8.07;;
12591;SDS011;6361;52.120;5.108;2022-11-23T06:46:19;19.92;;;8.23;;
12591;SDS011;6361;52.120;5.108;2022-11-23T06:48:44;19.77;;;7.47;;
12591;SDS011;6361;52.120;5.108;2022-11-23T06:51:10;23.55;;;7.82;;
12591;SDS011;6361;52.120;5.108;2022-11-23T06:53:36;20.58;;;6.50;;
12591;SDS011;6361;52.120;5.108;2022-11-23T06:56:02;17.27;;;6.40;;
12591;SDS011;6361;52.120;5.108;2022-11-23T06:58:28;20.58;;;6.25;;
12591;SDS011;6361;52.120;5.108;2022-11-23T07:00:53;17.15;;;5.15;;
12591;SDS011;6361;52.120;5.108;2022-11-23T07:03:19;17.17;;;5.10;;
12591;SDS011;6361;52.120;5.108;2022-11-23T07:05:48;14.02;;;3.97;;
12591;SDS011;6361;52.120;5.108;2022-11-23T07:08:14;13.48;;;3.67;;
12591;SDS011;6361;52.120;5.108;2022-11-23T07:10:39;19.80;;;3.97;;
12591;SDS011;6361;52.120;5.108;2022-11-23T07:13:05;13.40;;;3.20;;
12591;SDS011;6361;52.120;5.108;2022-11-23T07:15:31;19.30;;;3.25;;
12591;SDS011;6361;52.120;5.108;2022-11-23T07:17:57;14.70;;;3.20;;
12591;SDS011;6361;52.120;5.108;2022-11-23T07:20:22;15.48;;;3.28;;
12591;SDS011;6361;52.120;5.108;2022-11-23T07:22:50;24.95;;;3.38;;
12591;SDS011;6361;52.120;5.108;2022-11-23T07:25:27;22.23;;;3.40;;
12591;SDS011;6361;52.120;5.108;2022-11-23T07:27:53;16.20;;;3.33;;
12591;SDS011;6361;52.120;5.108;2022-11-23T07:30:22;17.52;;;3.08;;
12591;SDS011;6361;52.120;5.108;2022-11-23T07:32:48;21.20;;;3.17;;
12591;SDS011;6361;52.120;5.108;2022-11-23T07:35:13;13.35;;;2.83;;
12591;SDS011;6361;52.120;5.108;2022-11-23T07:37:39;17.10;;;2.95;;
12591;SDS011;6361;52.120;5.108;2022-11-23T07:40:04;16.05;;;3.20;;
12591;SDS011;6361;52.120;5.108;2022-11-23T07:42:31;16.92;;;2.90;;
12591;SDS011;6361;52.120;5.108;2022-11-23T07:44:56;14.52;;;2.97;;
12591;SDS011;6361;52.120;5.108;2022-11-23T07:47:21;18.67;;;2.70;;
12591;SDS011;6361;52.120;5.108;2022-11-23T07:49:47;20.23;;;3.00;;
12591;SDS011;6361;52.120;5.108;2022-11-23T07:52:12;16.92;;;3.15;;
12591;SDS011;6361;52.120;5.108;2022-11-23T07:54:37;13.95;;;2.72;;
12591;SDS011;6361;52.120;5.108;2022-11-23T07:57:03;15.45;;;3.88;;
12591;SDS011;6361;52.120;5.108;2022-11-23T07:59:28;17.10;;;2.95;;
12591;SDS011;6361;52.120;5.108;2022-11-23T08:01:53;19.42;;;3.20;;
12591;SDS011;6361;52.120;5.108;2022-11-23T08:04:19;19.95;;;3.50;;
12591;SDS011;6361;52.120;5.108;2022-11-23T08:06:44;23.35;;;3.58;;
12591;SDS011;6361;52.120;5.108;2022-11-23T08:09:10;23.38;;;3.33;;
12591;SDS011;6361;52.120;5.108;2022-11-23T08:11:35;13.45;;;2.63;;
12591;SDS011;6361;52.120;5.108;2022-11-23T08:14:00;17.40;;;3.70;;
12591;SDS011;6361;52.120;5.108;2022-11-23T08:16:26;15.73;;;3.03;;
12591;SDS011;6361;52.120;5.108;2022-11-23T08:18:51;13.88;;;3.20;;
12591;SDS011;6361;52.120;5.108;2022-11-23T08:21:16;18.67;;;3.13;;
12591;SDS011;6361;52.120;5.108;2022-11-23T08:23:42;20.10;;;3.05;;
12591;SDS011;6361;52.120;5.108;2022-11-23T08:26:07;21.33;;;3.42;;
12591;SDS011;6361;52.120;5.108;2022-11-23T08:28:32;13.90;;;3.13;;
12591;SDS011;6361;52.120;5.108;2022-11-23T08:30:58;22.50;;;3.25;;
12591;SDS011;6361;52.120;5.108;2022-11-23T08:33:23;14.32;;;3.30;;
12591;SDS011;6361;52.120;5.108;2022-11-23T08:35:49;18.60;;;3.10;;
12591;SDS011;6361;52.120;5.108;2022-11-23T08:38:14;16.83;;;3.17;;
12591;SDS011;6361;52.120;5.108;2022-11-23T08:40:40;14.75;;;3.38;;
12591;SDS011;6361;52.120;5.108;2022-11-23T08:43:05;21.02;;;3.50;;
12591;SDS011;6361;52.120;5.108;2022-11-23T08:45:31;16.90;;;3.33;;
12591;SDS011;6361;52.120;5.108;2022-11-23T08:48:00;23.83;;;3.10;;
12591;SDS011;6361;52.120;5.108;2022-11-23T08:50:26;19.67;;;3.28;;
12591;SDS011;6361;52.120;5.108;2022-11-23T08:52:55;20.77;;;3.33;;
12591;SDS011;6361;52.120;5.108;2022-11-23T08:55:21;19.77;;;3.83;;
12591;SDS011;6361;52.120;5.108;2022-11-23T08:57:46;20.10;;;3.35;;
12591;SDS011;6361;52.120;5.108;2022-11-23T09:00:12;19.10;;;3.03;;
12591;SDS011;6361;52.120;5.108;2022-11-23T09:02:38;23.63;;;3.40;;
12591;SDS011;6361;52.120;5.108;2022-11-23T09:05:03;19.85;;;3.55;;
12591;SDS011;6361;52.120;5.108;2022-11-23T09:07:30;17.85;;;3.25;;
12591;SDS011;6361;52.120;5.108;2022-11-23T09:09:56;15.40;;;3.40;;
12591;SDS011;6361;52.120;5.108;2022-11-23T09:12:21;15.85;;;3.55;;
12591;SDS011;6361;52.120;5.108;2022-11-23T09:14:47;16.55;;;4.05;;
12591;SDS011;6361;52.120;5.108;2022-11-23T09:17:12;22.00;;;3.58;;
12591;SDS011;6361;52.120;5.108;2022-11-23T09:19:37;17.83;;;3.47;;
12591;SDS011;6361;52.120;5.108;2022-11-23T09:22:03;18.80;;;3.40;;
12591;SDS011;6361;52.120;5.108;2022-11-23T09:24:28;19.17;;;3.65;;
12591;SDS011;6361;52.120;5.108;2022-11-23T09:26:53;23.20;;;3.65;;
12591;SDS011;6361;52.120;5.108;2022-11-23T09:29:19;15.88;;;2.92;;
12591;SDS011;6361;52.120;5.108;2022-11-23T09:31:45;17.58;;;3.30;;
12591;SDS011;6361;52.120;5.108;2022-11-23T09:34:13;19.85;;;3.65;;
12591;SDS011;6361;52.120;5.108;2022-11-23T09:36:38;18.50;;;3.13;;
12591;SDS011;6361;52.120;5.108;2022-11-23T09:39:04;16.65;;;3.28;;
12591;SDS011;6361;52.120;5.108;2022-11-23T09:47:33;14.25;;;3.17;;
12591;SDS011;6361;52.120;5.108;2022-11-23T09:52:32;18.33;;;2.85;;
12591;SDS011;6361;52.120;5.108;2022-11-23T09:55:00;21.95;;;4.05;;
12591;SDS011;6361;52.120;5.108;2022-11-23T09:57:28;15.48;;;5.35;;
12591;SDS011;6361;52.120;5.108;2022-11-23T10:00:01;14.60;;;3.08;;
12591;SDS011;6361;52.120;5.108;2022-11-23T10:02:29;11.55;;;3.35;;
12591;SDS011;6361;52.120;5.108;2022-11-23T10:04:57;15.10;;;2.95;;
12591;SDS011;6361;52.120;5.108;2022-11-23T10:15:26;18.05;;;3.53;;
12591;SDS011;6361;52.120;5.108;2022-11-23T10:18:01;9.45;;;2.42;;
12591;SDS011;6361;52.120;5.108;2022-11-23T10:26:17;14.23;;;3.05;;
12591;SDS011;6361;52.120;5.108;2022-11-23T10:28:44;13.32;;;2.20;;
12591;SDS011;6361;52.120;5.108;2022-11-23T10:31:15;11.30;;;2.67;;
12591;SDS011;6361;52.120;5.108;2022-11-23T10:36:34;16.77;;;2.83;;
12591;SDS011;6361;52.120;5.108;2022-11-23T10:39:00;15.57;;;3.20;;
12591;SDS011;6361;52.120;5.108;2022-11-23T10:41:28;19.13;;;3.17;;
12591;SDS011;6361;52.120;5.108;2022-11-23T10:43:55;17.30;;;3.10;;
12591;SDS011;6361;52.120;5.108;2022-11-23T10:48:49;18.73;;;3.08;;
12591;SDS011;6361;52.120;5.108;2022-11-23T10:51:18;13.95;;;3.75;;
12591;SDS011;6361;52.120;5.108;2022-11-23T10:53:50;16.70;;;3.60;;
12591;SDS011;6361;52.120;5.108;2022-11-23T10:56:19;15.55;;;2.88;;
12591;SDS011;6361;52.120;5.108;2022-11-23T10:58:45;19.25;;;4.13;;
12591;SDS011;6361;52.120;5.108;2022-11-23T11:01:12;12.95;;;3.33;;
12591;SDS011;6361;52.120;5.108;2022-11-23T11:03:44;18.88;;;3.13;;
12591;SDS011;6361;52.120;5.108;2022-11-23T11:06:10;17.98;;;3.00;;
12591;SDS011;6361;52.120;5.108;2022-11-23T11:08:45;14.90;;;3.35;;
12591;SDS011;6361;52.120;5.108;2022-11-23T11:14:13;16.73;;;3.10;;
12591;SDS011;6361;52.120;5.108;2022-11-23T11:16:50;13.23;;;2.60;;
12591;SDS011;6361;52.120;5.108;2022-11-23T11:21:47;11.98;;;2.92;;
12591;SDS011;6361;52.120;5.108;2022-11-23T11:24:14;10.30;;;2.53;;
12591;SDS011;6361;52.120;5.108;2022-11-23T11:26:48;12.48;;;2.97;;
12591;SDS011;6361;52.120;5.108;2022-11-23T11:32:13;12.13;;;3.08;;
12591;SDS011;6361;52.120;5.108;2022-11-23T11:34:47;10.75;;;2.88;;
12591;SDS011;6361;52.120;5.108;2022-11-23T11:39:48;13.93;;;3.00;;
12591;SDS011;6361;52.120;5.108;2022-11-23T11:43:00;10.95;;;2.50;;
12591;SDS011;6361;52.120;5.108;2022-11-23T11:45:06;15.90;;;2.90;;
12591;SDS011;6361;52.120;5.108;2022-11-23T11:47:44;12.02;;;2.65;;
12591;SDS011;6361;52.120;5.108;2022-11-23T11:52:50;13.35;;;2.55;;
12591;SDS011;6361;52.120;5.108;2022-11-23T11:55:22;13.40;;;2.70;;
12591;SDS011;6361;52.120;5.108;2022-11-23T11:57:54;7.85;;;2.28;;
12591;SDS011;6361;52.120;5.108;2022-11-23T12:00:20;12.93;;;3.00;;
12591;SDS011;6361;52.120;5.108;2022-11-23T12:05:36;11.43;;;2.90;;
12591;SDS011;6361;52.120;5.108;2022-11-23T12:08:12;9.40;;;2.40;;
12591;SDS011;6361;52.120;5.108;2022-11-23T12:13:21;12.30;;;2.10;;
12591;SDS011;6361;52.120;5.108;2022-11-23T12:16:00;13.80;;;2.38;;
12591;SDS011;6361;52.120;5.108;2022-11-23T12:21:26;12.55;;;1.98;;
12591;SDS011;6361;52.120;5.108;2022-11-23T12:24:21;12.20;;;2.30;;
12591;SDS011;6361;52.120;5.108;2022-11-23T12:29:50;9.95;;;2.35;;
12591;SDS011;6361;52.120;5.108;2022-11-23T12:32:27;12.98;;;1.90;;
12591;SDS011;6361;52.120;5.108;2022-11-23T12:43:00;10.70;;;2.05;;
12591;SDS011;6361;52.120;5.108;2022-11-23T12:59:02;10.50;;;2.08;;
12591;SDS011;6361;52.120;5.108;2022-11-23T13:06:45;7.03;;;1.60;;
12591;SDS011;6361;52.120;5.108;2022-11-23T13:22:51;9.13;;;1.98;;
12591;SDS011;6361;52.120;5.108;2022-11-23T13:25:24;7.60;;;2.10;;
12591;SDS011;6361;52.120;5.108;2022-11-23T13:33:24;7.65;;;1.77;;
12591;SDS011;6361;52.120;5.108;2022-11-23T13:35:56;8.00;;;1.63;;
12591;SDS011;6361;52.120;5.108;2022-11-23T13:38:23;7.32;;;1.85;;
12591;SDS011;6361;52.120;5.108;2022-11-23T13:40:52;13.70;;;4.53;;
12591;SDS011;6361;52.120;5.108;2022-11-23T13:43:31;10.52;;;2.22;;
12591;SDS011;6361;52.120;5.108;2022-11-23T13:48:51;10.80;;;2.72;;
12591;SDS011;6361;52.120;5.108;2022-11-23T13:51:21;10.73;;;2.30;;
12591;SDS011;6361;52.120;5.108;2022-11-23T13:53:53;12.05;;;1.83;;
12591;SDS011;6361;52.120;5.108;2022-11-23T14:04:32;10.48;;;1.80;;
12591;SDS011;6361;52.120;5.108;2022-11-23T14:09:56;12.05;;;2.85;;
12591;SDS011;6361;52.120;5.108;2022-11-23T14:17:37;8.30;;;1.67;;
12591;SDS011;6361;52.120;5.108;2022-11-23T14:25:58;14.82;;;2.10;;
12591;SDS011;6361;52.120;5.108;2022-11-23T14:31:58;9.98;;;1.90;;
12591;SDS011;6361;52.120;5.108;2022-11-23T14:42:24;9.02;;;1.90;;
12591;SDS011;6361;52.120;5.108;2022-11-23T14:44:51;6.25;;;1.70;;
12591;SDS011;6361;52.120;5.108;2022-11-23T14:47:24;8.23;;;2.15;;
12591;SDS011;6361;52.120;5.108;2022-11-23T14:49:50;7.05;;;2.30;;
12591;SDS011;6361;52.120;5.108;2022-11-23T14:52:20;6.43;;;2.45;;
12591;SDS011;6361;52.120;5.108;2022-11-23T14:54:50;6.63;;;2.42;;
12591;SDS011;6361;52.120;5.108;2022-11-23T14:57:22;6.55;;;2.47;;
12591;SDS011;6361;52.120;5.108;2022-11-23T14:59:57;11.27;;;2.38;;
12591;SDS011;6361;52.120;5.108;2022-11-23T15:02:32;9.10;;;2.35;;
12591;SDS011;6361;52.120;5.108;2022-11-23T15:05:04;8.07;;;2.17;;
12591;SDS011;6361;52.120;5.108;2022-11-23T15:07:43;8.23;;;2.30;;
12591;SDS011;6361;52.120;5.108;2022-11-23T15:12:54;10.05;;;2.40;;
12591;SDS011;6361;52.120;5.108;2022-11-23T15:15:24;6.18;;;2.00;;
12591;SDS011;6361;52.120;5.108;2022-11-23T15:20:17;9.88;;;2.10;;
12591;SDS011;6361;52.120;5.108;2022-11-23T15:22:42;10.30;;;2.10;;
12591;SDS011;6361;52.120;5.108;2022-11-23T15:25:10;7.10;;;1.73;;
12591;SDS011;6361;52.120;5.108;2022-11-23T15:27:39;9.55;;;2.10;;
12591;SDS011;6361;52.120;5.108;2022-11-23T15:30:18;10.15;;;2.40;;
12591;SDS011;6361;52.120;5.108;2022-11-23T15:33:02;10.43;;;2.22;;
12591;SDS011;6361;52.120;5.108;2022-11-23T15:35:32;5.63;;;2.38;;
12591;SDS011;6361;52.120;5.108;2022-11-23T15:37:59;6.25;;;2.33;;
12591;SDS011;6361;52.120;5.108;2022-11-23T15:40:26;10.40;;;3.67;;
12591;SDS011;6361;52.120;5.108;2022-11-23T15:42:54;6.28;;;2.53;;
12591;SDS011;6361;52.120;5.108;2022-11-23T15:45:36;6.88;;;2.55;;
12591;SDS011;6361;52.120;5.108;2022-11-23T15:48:04;7.18;;;2.42;;
12591;SDS011;6361;52.120;5.108;2022-11-23T15:50:33;10.23;;;2.40;;
12591;SDS011;6361;52.120;5.108;2022-11-23T15:53:07;9.07;;;2.35;;
12591;SDS011;6361;52.120;5.108;2022-11-23T15:55:32;10.35;;;2.83;;
12591;SDS011;6361;52.120;5.108;2022-11-23T15:57:58;8.38;;;2.20;;
12591;SDS011;6361;52.120;5.108;2022-11-23T16:00:24;7.28;;;2.80;;
12591;SDS011;6361;52.120;5.108;2022-11-23T16:02:50;8.73;;;2.80;;
12591;SDS011;6361;52.120;5.108;2022-11-23T16:05:18;8.90;;;3.10;;
12591;SDS011;6361;52.120;5.108;2022-11-23T16:07:56;7.35;;;3.00;;
12591;SDS011;6361;52.120;5.108;2022-11-23T16:10:23;8.75;;;2.92;;
12591;SDS011;6361;52.120;5.108;2022-11-23T16:13:03;7.20;;;2.70;;
12591;SDS011;6361;52.120;5.108;2022-11-23T16:17:58;7.18;;;3.28;;
12591;SDS011;6361;52.120;5.108;2022-11-23T16:20:26;5.80;;;3.00;;
12591;SDS011;6361;52.120;5.108;2022-11-23T16:22:53;6.47;;;2.97;;
12591;SDS011;6361;52.120;5.108;2022-11-23T16:25:29;7.25;;;3.30;;
12591;SDS011;6361;52.120;5.108;2022-11-23T16:27:57;7.03;;;3.53;;
12591;SDS011;6361;52.120;5.108;2022-11-23T16:30:24;10.23;;;3.80;;
12591;SDS011;6361;52.120;5.108;2022-11-23T16:33:00;7.63;;;3.72;;
12591;SDS011;6361;52.120;5.108;2022-11-23T16:35:25;6.93;;;4.00;;
12591;SDS011;6361;52.120;5.108;2022-11-23T16:37:51;7.72;;;4.38;;
12591;SDS011;6361;52.120;5.108;2022-11-23T16:40:16;9.38;;;4.50;;
12591;SDS011;6361;52.120;5.108;2022-11-23T16:42:42;7.70;;;4.45;;
12591;SDS011;6361;52.120;5.108;2022-11-23T16:45:08;12.02;;;5.05;;
12591;SDS011;6361;52.120;5.108;2022-11-23T16:47:34;9.73;;;4.72;;
12591;SDS011;6361;52.120;5.108;2022-11-23T16:49:59;11.18;;;5.45;;
12591;SDS011;6361;52.120;5.108;2022-11-23T16:52:25;9.20;;;5.43;;
12591;SDS011;6361;52.120;5.108;2022-11-23T16:54:51;8.60;;;4.95;;
12591;SDS011;6361;52.120;5.108;2022-11-23T16:59:53;9.13;;;5.60;;
12591;SDS011;6361;52.120;5.108;2022-11-23T17:02:19;8.07;;;5.80;;
12591;SDS011;6361;52.120;5.108;2022-11-23T17:04:44;10.60;;;6.80;;
12591;SDS011;6361;52.120;5.108;2022-11-23T17:07:09;12.63;;;6.45;;
12591;SDS011;6361;52.120;5.108;2022-11-23T17:09:35;10.32;;;6.57;;
12591;SDS011;6361;52.120;5.108;2022-11-23T17:12:00;11.45;;;6.53;;
12591;SDS011;6361;52.120;5.108;2022-11-23T17:14:26;9.07;;;6.55;;
12591;SDS011;6361;52.120;5.108;2022-11-23T17:16:52;9.90;;;6.25;;
12591;SDS011;6361;52.120;5.108;2022-11-23T17:19:18;8.90;;;6.38;;